LCK weather

Rickenbacker International Airport
Columbus, Ohio, United States

Public forecast

Using degrees Fahrenheit for public forecast. Weather courtesy of forecast.io.

Current aviation weather report (METAR) for Rickenbacker International Airport

Retrieved 2019/10/14 22:35 UTC (6 minutes ago):

KLCK 142235Z AUTO 28007KT 10SM CLR 16/01 A3006 RMK AO2 T01620011

Aviation forecast (TAF) for Rickenbacker International Airport

Retrieved 2019/10/14 22:12 UTC (29 minutes ago):

TAF KLCK 142209Z 1422/1518 28010KT P6SM SKC FM150000 VRB03KT P6SM SKC FM151400 15010KT P6SM SCT250 FM151700 17012G20KT P6SM SCT200